Terminal Aerodrome Forecast
Issued by NWS

Home | Current Version | Previous Version | Text Only | Print | Product List | Glossary On
Versions: 1 2 3 4 5 6 7 8 9 10 11 12 13 14 15
000
FTUS43 KMQT 160500
TAFSAW
TAF
KSAW 160521Z 1606/1706 27004KT P6SM SKC
     FM161500 24007KT P6SM BKN060
     FM170000 VRB03KT P6SM BKN060
      AMD LTD TO CLD VIS AND WIND TIL 161000=

USA.gov is the U.S. government's official web portal to all federal, state and local government web resources and services.